sensor_id;sensor_type;location;lat;lon;timestamp;P1;durP1;ratioP1;P2;durP2;ratioP2
15528;SDS011;7866;52.280;9.500;2023-04-07T00:01:21;8.63;;;6.93;;
15528;SDS011;7866;52.280;9.500;2023-04-07T00:06:24;9.60;;;7.73;;
15528;SDS011;7866;52.280;9.500;2023-04-07T00:11:26;7.87;;;7.00;;
15528;SDS011;7866;52.280;9.500;2023-04-07T00:16:28;9.07;;;7.47;;
15528;SDS011;7866;52.280;9.500;2023-04-07T00:21:31;12.33;;;7.47;;
15528;SDS011;7866;52.280;9.500;2023-04-07T00:26:32;10.43;;;7.60;;
15528;SDS011;7866;52.280;9.500;2023-04-07T00:31:34;7.90;;;6.93;;
15528;SDS011;7866;52.280;9.500;2023-04-07T00:36:37;9.77;;;7.13;;
15528;SDS011;7866;52.280;9.500;2023-04-07T00:41:38;10.27;;;7.27;;
15528;SDS011;7866;52.280;9.500;2023-04-07T00:46:40;10.97;;;7.20;;
15528;SDS011;7866;52.280;9.500;2023-04-07T00:51:43;7.40;;;6.60;;
15528;SDS011;7866;52.280;9.500;2023-04-07T00:56:45;7.80;;;6.70;;
15528;SDS011;7866;52.280;9.500;2023-04-07T01:01:50;8.13;;;6.97;;
15528;SDS011;7866;52.280;9.500;2023-04-07T01:07:03;7.53;;;6.73;;
15528;SDS011;7866;52.280;9.500;2023-04-07T01:12:09;7.77;;;6.83;;
15528;SDS011;7866;52.280;9.500;2023-04-07T01:17:15;6.77;;;5.93;;
15528;SDS011;7866;52.280;9.500;2023-04-07T01:22:22;7.77;;;6.57;;
15528;SDS011;7866;52.280;9.500;2023-04-07T01:27:33;8.13;;;7.00;;
15528;SDS011;7866;52.280;9.500;2023-04-07T01:32:39;6.67;;;5.70;;
15528;SDS011;7866;52.280;9.500;2023-04-07T01:37:43;7.23;;;6.30;;
15528;SDS011;7866;52.280;9.500;2023-04-07T01:42:47;8.43;;;7.03;;
15528;SDS011;7866;52.280;9.500;2023-04-07T01:47:51;7.93;;;7.03;;
15528;SDS011;7866;52.280;9.500;2023-04-07T01:52:54;8.53;;;7.13;;
15528;SDS011;7866;52.280;9.500;2023-04-07T01:57:56;7.70;;;6.90;;
15528;SDS011;7866;52.280;9.500;2023-04-07T02:03:08;7.10;;;6.40;;
15528;SDS011;7866;52.280;9.500;2023-04-07T02:08:19;7.10;;;6.40;;
15528;SDS011;7866;52.280;9.500;2023-04-07T02:13:23;7.53;;;6.70;;
15528;SDS011;7866;52.280;9.500;2023-04-07T02:18:27;8.23;;;6.57;;
15528;SDS011;7866;52.280;9.500;2023-04-07T02:23:33;9.40;;;6.13;;
15528;SDS011;7866;52.280;9.500;2023-04-07T02:28:35;8.00;;;6.20;;
15528;SDS011;7866;52.280;9.500;2023-04-07T02:33:38;8.37;;;6.50;;
15528;SDS011;7866;52.280;9.500;2023-04-07T02:38:40;7.30;;;6.50;;
15528;SDS011;7866;52.280;9.500;2023-04-07T02:43:41;8.90;;;7.00;;
15528;SDS011;7866;52.280;9.500;2023-04-07T02:48:44;7.20;;;6.50;;
15528;SDS011;7866;52.280;9.500;2023-04-07T02:53:46;7.60;;;6.77;;
15528;SDS011;7866;52.280;9.500;2023-04-07T02:58:47;8.40;;;6.60;;
15528;SDS011;7866;52.280;9.500;2023-04-07T03:03:50;9.97;;;6.37;;
15528;SDS011;7866;52.280;9.500;2023-04-07T03:08:52;7.13;;;5.97;;
15528;SDS011;7866;52.280;9.500;2023-04-07T03:13:53;7.53;;;5.80;;
15528;SDS011;7866;52.280;9.500;2023-04-07T03:18:57;8.57;;;6.23;;
15528;SDS011;7866;52.280;9.500;2023-04-07T03:23:58;9.10;;;7.30;;
15528;SDS011;7866;52.280;9.500;2023-04-07T03:29:00;7.17;;;6.20;;
15528;SDS011;7866;52.280;9.500;2023-04-07T03:34:03;7.50;;;6.70;;
15528;SDS011;7866;52.280;9.500;2023-04-07T03:39:05;8.03;;;6.20;;
15528;SDS011;7866;52.280;9.500;2023-04-07T03:44:06;8.43;;;7.40;;
15528;SDS011;7866;52.280;9.500;2023-04-07T03:49:09;8.03;;;6.50;;
15528;SDS011;7866;52.280;9.500;2023-04-07T03:54:11;6.87;;;6.13;;
15528;SDS011;7866;52.280;9.500;2023-04-07T03:59:13;15.53;;;8.30;;
15528;SDS011;7866;52.280;9.500;2023-04-07T04:04:16;8.70;;;7.90;;
15528;SDS011;7866;52.280;9.500;2023-04-07T04:09:17;8.63;;;7.50;;
15528;SDS011;7866;52.280;9.500;2023-04-07T04:14:19;7.73;;;6.87;;
15528;SDS011;7866;52.280;9.500;2023-04-07T04:19:22;9.37;;;7.47;;
15528;SDS011;7866;52.280;9.500;2023-04-07T04:24:25;9.33;;;8.00;;
15528;SDS011;7866;52.280;9.500;2023-04-07T04:29:26;8.87;;;7.97;;
15528;SDS011;7866;52.280;9.500;2023-04-07T04:34:29;9.87;;;8.10;;
15528;SDS011;7866;52.280;9.500;2023-04-07T04:39:31;8.90;;;8.07;;
15528;SDS011;7866;52.280;9.500;2023-04-07T04:44:32;9.83;;;8.30;;
15528;SDS011;7866;52.280;9.500;2023-04-07T04:49:35;9.57;;;8.57;;
15528;SDS011;7866;52.280;9.500;2023-04-07T04:54:37;9.63;;;8.40;;
15528;SDS011;7866;52.280;9.500;2023-04-07T04:59:38;9.20;;;8.17;;
15528;SDS011;7866;52.280;9.500;2023-04-07T05:04:42;11.30;;;9.17;;
15528;SDS011;7866;52.280;9.500;2023-04-07T05:09:44;9.83;;;8.83;;
15528;SDS011;7866;52.280;9.500;2023-04-07T05:14:46;8.37;;;7.57;;
15528;SDS011;7866;52.280;9.500;2023-04-07T05:19:49;9.13;;;8.27;;
15528;SDS011;7866;52.280;9.500;2023-04-07T05:24:50;8.87;;;7.97;;
15528;SDS011;7866;52.280;9.500;2023-04-07T05:29:52;13.93;;;7.57;;
15528;SDS011;7866;52.280;9.500;2023-04-07T05:34:55;9.60;;;7.30;;
15528;SDS011;7866;52.280;9.500;2023-04-07T05:39:56;8.13;;;7.13;;
15528;SDS011;7866;52.280;9.500;2023-04-07T05:44:58;7.67;;;6.90;;
15528;SDS011;7866;52.280;9.500;2023-04-07T05:50:01;8.60;;;7.40;;
15528;SDS011;7866;52.280;9.500;2023-04-07T05:55:03;9.03;;;7.00;;
15528;SDS011;7866;52.280;9.500;2023-04-07T06:00:06;7.23;;;6.53;;
15528;SDS011;7866;52.280;9.500;2023-04-07T06:05:10;8.33;;;6.97;;
15528;SDS011;7866;52.280;9.500;2023-04-07T06:10:11;7.73;;;6.93;;
15528;SDS011;7866;52.280;9.500;2023-04-07T06:15:13;7.57;;;6.73;;
15528;SDS011;7866;52.280;9.500;2023-04-07T06:20:16;8.17;;;7.13;;
15528;SDS011;7866;52.280;9.500;2023-04-07T06:25:19;7.47;;;6.73;;
15528;SDS011;7866;52.280;9.500;2023-04-07T06:30:20;10.20;;;9.20;;
15528;SDS011;7866;52.280;9.500;2023-04-07T06:35:23;12.03;;;9.90;;
15528;SDS011;7866;52.280;9.500;2023-04-07T06:40:26;11.40;;;10.23;;
15528;SDS011;7866;52.280;9.500;2023-04-07T06:45:28;12.03;;;10.23;;
15528;SDS011;7866;52.280;9.500;2023-04-07T06:50:31;11.87;;;10.20;;
15528;SDS011;7866;52.280;9.500;2023-04-07T06:55:32;10.80;;;9.70;;
15528;SDS011;7866;52.280;9.500;2023-04-07T07:00:34;11.70;;;10.50;;
15528;SDS011;7866;52.280;9.500;2023-04-07T07:05:37;16.87;;;12.10;;
15528;SDS011;7866;52.280;9.500;2023-04-07T07:10:38;13.43;;;11.03;;
15528;SDS011;7866;52.280;9.500;2023-04-07T07:15:40;13.10;;;11.67;;
15528;SDS011;7866;52.280;9.500;2023-04-07T07:20:43;12.90;;;11.70;;
15528;SDS011;7866;52.280;9.500;2023-04-07T07:25:45;13.00;;;10.30;;
15528;SDS011;7866;52.280;9.500;2023-04-07T07:30:47;12.30;;;11.10;;
15528;SDS011;7866;52.280;9.500;2023-04-07T07:35:50;12.53;;;11.23;;
15528;SDS011;7866;52.280;9.500;2023-04-07T07:40:51;12.43;;;11.13;;
15528;SDS011;7866;52.280;9.500;2023-04-07T07:45:53;12.87;;;11.50;;
15528;SDS011;7866;52.280;9.500;2023-04-07T07:50:56;10.73;;;9.80;;
15528;SDS011;7866;52.280;9.500;2023-04-07T07:55:57;13.13;;;10.83;;
15528;SDS011;7866;52.280;9.500;2023-04-07T08:01:00;11.60;;;10.40;;
15528;SDS011;7866;52.280;9.500;2023-04-07T08:06:03;13.37;;;11.10;;
15528;SDS011;7866;52.280;9.500;2023-04-07T08:11:05;14.07;;;10.83;;
15528;SDS011;7866;52.280;9.500;2023-04-07T08:16:07;13.37;;;12.07;;
15528;SDS011;7866;52.280;9.500;2023-04-07T08:21:10;13.30;;;12.00;;
15528;SDS011;7866;52.280;9.500;2023-04-07T08:26:12;15.73;;;12.37;;
15528;SDS011;7866;52.280;9.500;2023-04-07T08:31:13;12.60;;;11.30;;
15528;SDS011;7866;52.280;9.500;2023-04-07T08:36:16;12.73;;;11.43;;
15528;SDS011;7866;52.280;9.500;2023-04-07T08:41:19;13.10;;;11.63;;
15528;SDS011;7866;52.280;9.500;2023-04-07T08:46:26;11.97;;;10.77;;
15528;SDS011;7866;52.280;9.500;2023-04-07T08:51:31;13.70;;;12.20;;
15528;SDS011;7866;52.280;9.500;2023-04-07T08:56:33;13.17;;;11.83;;
15528;SDS011;7866;52.280;9.500;2023-04-07T09:01:35;13.80;;;11.47;;
15528;SDS011;7866;52.280;9.500;2023-04-07T09:06:38;15.97;;;11.30;;
15528;SDS011;7866;52.280;9.500;2023-04-07T09:11:40;12.37;;;10.97;;
15528;SDS011;7866;52.280;9.500;2023-04-07T09:16:41;12.30;;;10.67;;
15528;SDS011;7866;52.280;9.500;2023-04-07T09:21:48;12.40;;;10.87;;
15528;SDS011;7866;52.280;9.500;2023-04-07T09:26:50;12.63;;;11.10;;
15528;SDS011;7866;52.280;9.500;2023-04-07T09:32:08;12.97;;;11.00;;
15528;SDS011;7866;52.280;9.500;2023-04-07T09:37:20;11.00;;;9.90;;
15528;SDS011;7866;52.280;9.500;2023-04-07T09:42:22;12.60;;;10.13;;
15528;SDS011;7866;52.280;9.500;2023-04-07T09:47:25;12.73;;;9.33;;
15528;SDS011;7866;52.280;9.500;2023-04-07T09:52:48;12.70;;;9.63;;
15528;SDS011;7866;52.280;9.500;2023-04-07T09:57:52;10.50;;;9.47;;
15528;SDS011;7866;52.280;9.500;2023-04-07T10:02:55;10.70;;;9.37;;
15528;SDS011;7866;52.280;9.500;2023-04-07T10:07:59;12.50;;;9.07;;
15528;SDS011;7866;52.280;9.500;2023-04-07T10:13:02;11.60;;;8.00;;
15528;SDS011;7866;52.280;9.500;2023-04-07T10:18:05;8.03;;;7.23;;
15528;SDS011;7866;52.280;9.500;2023-04-07T10:23:12;8.87;;;7.80;;
15528;SDS011;7866;52.280;9.500;2023-04-07T10:28:18;8.33;;;7.40;;
15528;SDS011;7866;52.280;9.500;2023-04-07T10:55:31;7.60;;;6.77;;
15528;SDS011;7866;52.280;9.500;2023-04-07T11:00:35;8.97;;;7.57;;
15528;SDS011;7866;52.280;9.500;2023-04-07T11:05:36;11.20;;;8.33;;
15528;SDS011;7866;52.280;9.500;2023-04-07T11:10:40;9.97;;;7.27;;
15528;SDS011;7866;52.280;9.500;2023-04-07T11:15:48;9.47;;;7.67;;
15528;SDS011;7866;52.280;9.500;2023-04-07T11:20:51;9.17;;;7.87;;
15528;SDS011;7866;52.280;9.500;2023-04-07T11:25:59;10.10;;;8.07;;
15528;SDS011;7866;52.280;9.500;2023-04-07T11:31:02;9.07;;;8.10;;
15528;SDS011;7866;52.280;9.500;2023-04-07T11:36:04;9.37;;;7.83;;
15528;SDS011;7866;52.280;9.500;2023-04-07T11:41:12;11.60;;;8.00;;
15528;SDS011;7866;52.280;9.500;2023-04-07T11:46:16;9.40;;;7.80;;
15528;SDS011;7866;52.280;9.500;2023-04-07T11:51:19;10.97;;;8.03;;
15528;SDS011;7866;52.280;9.500;2023-04-07T11:56:24;10.30;;;8.27;;
15528;SDS011;7866;52.280;9.500;2023-04-07T12:01:37;8.93;;;7.87;;
15528;SDS011;7866;52.280;9.500;2023-04-07T12:06:40;10.43;;;8.63;;
15528;SDS011;7866;52.280;9.500;2023-04-07T12:11:48;9.73;;;7.70;;
15528;SDS011;7866;52.280;9.500;2023-04-07T12:16:50;10.77;;;8.67;;
15528;SDS011;7866;52.280;9.500;2023-04-07T12:21:55;10.33;;;8.43;;
15528;SDS011;7866;52.280;9.500;2023-04-07T12:26:58;11.27;;;7.83;;
15528;SDS011;7866;52.280;9.500;2023-04-07T12:32:00;9.27;;;7.77;;
15528;SDS011;7866;52.280;9.500;2023-04-07T12:37:01;10.50;;;7.83;;
15528;SDS011;7866;52.280;9.500;2023-04-07T12:42:05;11.23;;;9.03;;
15528;SDS011;7866;52.280;9.500;2023-04-07T12:47:07;11.23;;;9.30;;
15528;SDS011;7866;52.280;9.500;2023-04-07T12:52:11;10.77;;;8.50;;
15528;SDS011;7866;52.280;9.500;2023-04-07T12:57:14;10.33;;;8.97;;
15528;SDS011;7866;52.280;9.500;2023-04-07T13:02:16;11.30;;;9.87;;
15528;SDS011;7866;52.280;9.500;2023-04-07T13:07:18;11.37;;;8.73;;
15528;SDS011;7866;52.280;9.500;2023-04-07T13:12:22;11.93;;;8.90;;
15528;SDS011;7866;52.280;9.500;2023-04-07T13:17:24;9.87;;;8.20;;
15528;SDS011;7866;52.280;9.500;2023-04-07T13:22:27;9.87;;;8.60;;
15528;SDS011;7866;52.280;9.500;2023-04-07T13:27:31;9.93;;;8.60;;
15528;SDS011;7866;52.280;9.500;2023-04-07T13:32:32;10.20;;;8.13;;
15528;SDS011;7866;52.280;9.500;2023-04-07T13:37:34;11.75;;;8.57;;
15528;SDS011;7866;52.280;9.500;2023-04-07T13:42:37;10.38;;;8.48;;
15528;SDS011;7866;52.280;9.500;2023-04-07T13:47:39;8.57;;;7.50;;
15528;SDS011;7866;52.280;9.500;2023-04-07T13:52:41;11.63;;;8.50;;
15528;SDS011;7866;52.280;9.500;2023-04-07T13:57:43;10.18;;;8.02;;
15528;SDS011;7866;52.280;9.500;2023-04-07T14:02:45;11.52;;;8.40;;
15528;SDS011;7866;52.280;9.500;2023-04-07T14:07:48;8.43;;;6.78;;
15528;SDS011;7866;52.280;9.500;2023-04-07T14:12:51;8.80;;;6.70;;
15528;SDS011;7866;52.280;9.500;2023-04-07T14:17:53;8.02;;;7.10;;
15528;SDS011;7866;52.280;9.500;2023-04-07T14:22:55;10.77;;;7.75;;
15528;SDS011;7866;52.280;9.500;2023-04-07T14:27:58;8.30;;;6.88;;
15528;SDS011;7866;52.280;9.500;2023-04-07T14:33:00;7.57;;;6.32;;
15528;SDS011;7866;52.280;9.500;2023-04-07T14:38:01;10.43;;;7.00;;
15528;SDS011;7866;52.280;9.500;2023-04-07T14:43:04;9.07;;;6.85;;
15528;SDS011;7866;52.280;9.500;2023-04-07T14:48:06;8.27;;;6.55;;
15528;SDS011;7866;52.280;9.500;2023-04-07T14:53:09;9.55;;;6.30;;
15528;SDS011;7866;52.280;9.500;2023-04-07T14:58:12;6.97;;;6.10;;
15528;SDS011;7866;52.280;9.500;2023-04-07T15:03:14;7.27;;;6.37;;
15528;SDS011;7866;52.280;9.500;2023-04-07T15:08:16;5.93;;;5.33;;
15528;SDS011;7866;52.280;9.500;2023-04-07T15:13:19;8.67;;;6.27;;
15528;SDS011;7866;52.280;9.500;2023-04-07T15:18:20;10.15;;;8.32;;
15528;SDS011;7866;52.280;9.500;2023-04-07T15:23:22;7.70;;;6.07;;
15528;SDS011;7866;52.280;9.500;2023-04-07T15:28:25;6.93;;;5.95;;
15528;SDS011;7866;52.280;9.500;2023-04-07T15:33:26;7.00;;;5.50;;
15528;SDS011;7866;52.280;9.500;2023-04-07T15:38:28;6.03;;;5.47;;
15528;SDS011;7866;52.280;9.500;2023-04-07T15:43:31;6.23;;;5.57;;
15528;SDS011;7866;52.280;9.500;2023-04-07T15:48:33;7.80;;;5.57;;
15528;SDS011;7866;52.280;9.500;2023-04-07T15:53:35;6.10;;;5.50;;
15528;SDS011;7866;52.280;9.500;2023-04-07T15:58:38;9.20;;;5.47;;
15528;SDS011;7866;52.280;9.500;2023-04-07T16:03:39;5.43;;;4.93;;
15528;SDS011;7866;52.280;9.500;2023-04-07T16:08:41;4.97;;;4.40;;
15528;SDS011;7866;52.280;9.500;2023-04-07T16:13:44;6.47;;;5.10;;
15528;SDS011;7866;52.280;9.500;2023-04-07T16:18:45;5.70;;;4.60;;
15528;SDS011;7866;52.280;9.500;2023-04-07T16:23:47;5.27;;;4.40;;
15528;SDS011;7866;52.280;9.500;2023-04-07T16:28:50;6.90;;;4.47;;
15528;SDS011;7866;52.280;9.500;2023-04-07T16:33:52;5.73;;;4.60;;
15528;SDS011;7866;52.280;9.500;2023-04-07T16:38:53;5.50;;;4.20;;
15528;SDS011;7866;52.280;9.500;2023-04-07T16:43:58;6.07;;;4.57;;
15528;SDS011;7866;52.280;9.500;2023-04-07T16:48:59;5.00;;;4.20;;
15528;SDS011;7866;52.280;9.500;2023-04-07T16:54:02;6.93;;;4.10;;
15528;SDS011;7866;52.280;9.500;2023-04-07T16:59:05;5.57;;;3.87;;
15528;SDS011;7866;52.280;9.500;2023-04-07T17:04:07;4.27;;;3.80;;
15528;SDS011;7866;52.280;9.500;2023-04-07T17:09:08;4.30;;;3.77;;
15528;SDS011;7866;52.280;9.500;2023-04-07T17:14:12;7.57;;;3.47;;
15528;SDS011;7866;52.280;9.500;2023-04-07T17:19:14;3.80;;;3.40;;
15528;SDS011;7866;52.280;9.500;2023-04-07T17:24:15;7.17;;;3.80;;
15528;SDS011;7866;52.280;9.500;2023-04-07T17:29:18;4.20;;;3.70;;
15528;SDS011;7866;52.280;9.500;2023-04-07T17:34:25;4.97;;;3.70;;
15528;SDS011;7866;52.280;9.500;2023-04-07T17:39:26;4.43;;;3.50;;
15528;SDS011;7866;52.280;9.500;2023-04-07T17:44:29;5.23;;;4.30;;
15528;SDS011;7866;52.280;9.500;2023-04-07T17:49:33;5.73;;;5.23;;
15528;SDS011;7866;52.280;9.500;2023-04-07T17:54:34;6.70;;;4.30;;
15528;SDS011;7866;52.280;9.500;2023-04-07T17:59:38;6.50;;;5.00;;
15528;SDS011;7866;52.280;9.500;2023-04-07T18:04:39;3.83;;;3.27;;
15528;SDS011;7866;52.280;9.500;2023-04-07T18:09:41;3.13;;;2.83;;
15528;SDS011;7866;52.280;9.500;2023-04-07T18:14:45;4.03;;;3.50;;
15528;SDS011;7866;52.280;9.500;2023-04-07T18:19:47;4.30;;;3.90;;
15528;SDS011;7866;52.280;9.500;2023-04-07T18:24:48;9.00;;;3.90;;
15528;SDS011;7866;52.280;9.500;2023-04-07T18:29:52;4.63;;;4.00;;
15528;SDS011;7866;52.280;9.500;2023-04-07T18:34:56;4.33;;;3.93;;
15528;SDS011;7866;52.280;9.500;2023-04-07T18:39:58;4.00;;;3.63;;
15528;SDS011;7866;52.280;9.500;2023-04-07T18:45:01;4.20;;;3.40;;
15528;SDS011;7866;52.280;9.500;2023-04-07T18:50:03;4.27;;;3.67;;
15528;SDS011;7866;52.280;9.500;2023-04-07T18:55:06;4.07;;;3.67;;
15528;SDS011;7866;52.280;9.500;2023-04-07T19:00:11;3.33;;;3.00;;
15528;SDS011;7866;52.280;9.500;2023-04-07T19:05:13;3.40;;;3.10;;
15528;SDS011;7866;52.280;9.500;2023-04-07T19:10:14;4.37;;;3.40;;
15528;SDS011;7866;52.280;9.500;2023-04-07T19:15:17;3.30;;;3.03;;
15528;SDS011;7866;52.280;9.500;2023-04-07T19:20:19;3.57;;;3.07;;
15528;SDS011;7866;52.280;9.500;2023-04-07T19:25:21;3.70;;;3.40;;
15528;SDS011;7866;52.280;9.500;2023-04-07T19:30:24;4.47;;;3.10;;
15528;SDS011;7866;52.280;9.500;2023-04-07T19:35:26;4.13;;;3.40;;
15528;SDS011;7866;52.280;9.500;2023-04-07T19:40:28;3.20;;;2.90;;
15528;SDS011;7866;52.280;9.500;2023-04-07T19:45:32;3.00;;;2.80;;
15528;SDS011;7866;52.280;9.500;2023-04-07T19:50:33;3.87;;;2.80;;
15528;SDS011;7866;52.280;9.500;2023-04-07T19:55:40;3.00;;;2.67;;
15528;SDS011;7866;52.280;9.500;2023-04-07T20:00:43;2.73;;;2.53;;
15528;SDS011;7866;52.280;9.500;2023-04-07T20:05:48;3.37;;;2.73;;
15528;SDS011;7866;52.280;9.500;2023-04-07T20:10:51;2.60;;;2.40;;
15528;SDS011;7866;52.280;9.500;2023-04-07T20:15:54;3.63;;;2.70;;
15528;SDS011;7866;52.280;9.500;2023-04-07T20:20:59;5.30;;;2.60;;
15528;SDS011;7866;52.280;9.500;2023-04-07T20:26:01;2.27;;;2.07;;
15528;SDS011;7866;52.280;9.500;2023-04-07T20:31:04;3.27;;;2.40;;
15528;SDS011;7866;52.280;9.500;2023-04-07T20:36:06;3.47;;;2.60;;
15528;SDS011;7866;52.280;9.500;2023-04-07T20:41:09;3.07;;;2.53;;
15528;SDS011;7866;52.280;9.500;2023-04-07T20:46:12;2.80;;;2.33;;
15528;SDS011;7866;52.280;9.500;2023-04-07T20:51:14;2.50;;;2.30;;
15528;SDS011;7866;52.280;9.500;2023-04-07T20:56:16;3.07;;;2.43;;
15528;SDS011;7866;52.280;9.500;2023-04-07T21:01:19;2.50;;;2.30;;
15528;SDS011;7866;52.280;9.500;2023-04-07T21:06:21;2.90;;;2.60;;
15528;SDS011;7866;52.280;9.500;2023-04-07T21:11:23;3.40;;;2.43;;
15528;SDS011;7866;52.280;9.500;2023-04-07T21:16:26;3.23;;;2.30;;
15528;SDS011;7866;52.280;9.500;2023-04-07T21:21:28;2.70;;;2.50;;
15528;SDS011;7866;52.280;9.500;2023-04-07T21:26:30;2.60;;;2.40;;
15528;SDS011;7866;52.280;9.500;2023-04-07T21:31:33;3.27;;;2.73;;
15528;SDS011;7866;52.280;9.500;2023-04-07T21:36:35;3.20;;;2.90;;
15528;SDS011;7866;52.280;9.500;2023-04-07T21:41:37;2.90;;;2.70;;
15528;SDS011;7866;52.280;9.500;2023-04-07T21:46:40;3.70;;;3.40;;
15528;SDS011;7866;52.280;9.500;2023-04-07T21:51:42;3.70;;;3.40;;
15528;SDS011;7866;52.280;9.500;2023-04-07T21:56:43;3.53;;;3.20;;
15528;SDS011;7866;52.280;9.500;2023-04-07T22:01:49;3.87;;;3.57;;
15528;SDS011;7866;52.280;9.500;2023-04-07T22:06:51;5.13;;;3.87;;
15528;SDS011;7866;52.280;9.500;2023-04-07T22:11:52;4.73;;;3.90;;
15528;SDS011;7866;52.280;9.500;2023-04-07T22:16:56;4.47;;;4.07;;
15528;SDS011;7866;52.280;9.500;2023-04-07T22:21:58;4.53;;;4.13;;
15528;SDS011;7866;52.280;9.500;2023-04-07T22:26:59;4.03;;;3.50;;
15528;SDS011;7866;52.280;9.500;2023-04-07T22:32:03;4.57;;;3.80;;
15528;SDS011;7866;52.280;9.500;2023-04-07T22:37:05;4.47;;;3.90;;
15528;SDS011;7866;52.280;9.500;2023-04-07T22:42:06;4.90;;;4.50;;
15528;SDS011;7866;52.280;9.500;2023-04-07T22:47:09;4.47;;;4.07;;
15528;SDS011;7866;52.280;9.500;2023-04-07T22:52:11;4.50;;;4.07;;
15528;SDS011;7866;52.280;9.500;2023-04-07T22:57:13;4.87;;;4.37;;
15528;SDS011;7866;52.280;9.500;2023-04-07T23:02:16;4.47;;;4.07;;
15528;SDS011;7866;52.280;9.500;2023-04-07T23:07:17;5.40;;;3.90;;
15528;SDS011;7866;52.280;9.500;2023-04-07T23:12:19;6.50;;;4.60;;
15528;SDS011;7866;52.280;9.500;2023-04-07T23:17:22;5.60;;;4.43;;
15528;SDS011;7866;52.280;9.500;2023-04-07T23:22:24;6.07;;;4.70;;
15528;SDS011;7866;52.280;9.500;2023-04-07T23:27:26;6.53;;;4.47;;
15528;SDS011;7866;52.280;9.500;2023-04-07T23:32:29;4.90;;;4.40;;
15528;SDS011;7866;52.280;9.500;2023-04-07T23:37:30;5.33;;;4.83;;
15528;SDS011;7866;52.280;9.500;2023-04-07T23:42:32;5.27;;;4.77;;
15528;SDS011;7866;52.280;9.500;2023-04-07T23:47:35;4.87;;;4.47;;
15528;SDS011;7866;52.280;9.500;2023-04-07T23:52:37;6.53;;;4.80;;
15528;SDS011;7866;52.280;9.500;2023-04-07T23:57:38;6.00;;;5.30;;
